sensor_id;sensor_type;location;lat;lon;timestamp;P1;durP1;ratioP1;P2;durP2;ratioP2
79624;SDS011;69101;45.534;10.218;2023-05-07T00:00:08;15.73;;;8.50;;
79624;SDS011;69101;45.534;10.218;2023-05-07T00:02:34;12.75;;;7.30;;
79624;SDS011;69101;45.534;10.218;2023-05-07T00:05:00;12.75;;;7.57;;
79624;SDS011;69101;45.534;10.218;2023-05-07T00:07:27;13.32;;;8.85;;
79624;SDS011;69101;45.534;10.218;2023-05-07T00:09:52;12.85;;;7.80;;
79624;SDS011;69101;45.534;10.218;2023-05-07T00:12:18;12.77;;;7.22;;
79624;SDS011;69101;45.534;10.218;2023-05-07T00:14:43;12.65;;;7.68;;
79624;SDS011;69101;45.534;10.218;2023-05-07T00:17:09;13.82;;;8.10;;
79624;SDS011;69101;45.534;10.218;2023-05-07T00:19:34;12.82;;;7.95;;
79624;SDS011;69101;45.534;10.218;2023-05-07T00:22:00;14.20;;;7.63;;
79624;SDS011;69101;45.534;10.218;2023-05-07T00:24:25;12.82;;;7.82;;
79624;SDS011;69101;45.534;10.218;2023-05-07T00:26:50;13.40;;;7.68;;
79624;SDS011;69101;45.534;10.218;2023-05-07T00:29:17;12.73;;;7.70;;
79624;SDS011;69101;45.534;10.218;2023-05-07T00:31:43;12.85;;;7.72;;
79624;SDS011;69101;45.534;10.218;2023-05-07T00:34:08;13.32;;;8.10;;
79624;SDS011;69101;45.534;10.218;2023-05-07T00:36:33;13.15;;;8.07;;
79624;SDS011;69101;45.534;10.218;2023-05-07T00:38:59;13.02;;;8.18;;
79624;SDS011;69101;45.534;10.218;2023-05-07T00:41:26;14.45;;;8.32;;
79624;SDS011;69101;45.534;10.218;2023-05-07T00:43:52;14.60;;;8.07;;
79624;SDS011;69101;45.534;10.218;2023-05-07T00:46:17;12.75;;;7.50;;
79624;SDS011;69101;45.534;10.218;2023-05-07T00:48:45;12.57;;;7.22;;
79624;SDS011;69101;45.534;10.218;2023-05-07T00:51:11;12.45;;;7.60;;
79624;SDS011;69101;45.534;10.218;2023-05-07T00:53:37;13.27;;;8.15;;
79624;SDS011;69101;45.534;10.218;2023-05-07T00:56:03;13.02;;;7.63;;
79624;SDS011;69101;45.534;10.218;2023-05-07T00:58:31;13.30;;;7.82;;
79624;SDS011;69101;45.534;10.218;2023-05-07T01:00:57;13.93;;;8.38;;
79624;SDS011;69101;45.534;10.218;2023-05-07T01:03:23;13.40;;;8.15;;
79624;SDS011;69101;45.534;10.218;2023-05-07T01:05:48;13.52;;;8.48;;
79624;SDS011;69101;45.534;10.218;2023-05-07T01:08:15;13.13;;;7.47;;
79624;SDS011;69101;45.534;10.218;2023-05-07T01:10:41;14.55;;;8.32;;
79624;SDS011;69101;45.534;10.218;2023-05-07T01:13:08;13.20;;;7.43;;
79624;SDS011;69101;45.534;10.218;2023-05-07T01:15:35;12.98;;;8.55;;
79624;SDS011;69101;45.534;10.218;2023-05-07T01:18:01;12.95;;;7.68;;
79624;SDS011;69101;45.534;10.218;2023-05-07T01:20:26;13.40;;;7.65;;
79624;SDS011;69101;45.534;10.218;2023-05-07T01:22:53;14.05;;;8.20;;
79624;SDS011;69101;45.534;10.218;2023-05-07T01:25:19;14.00;;;7.68;;
79624;SDS011;69101;45.534;10.218;2023-05-07T01:27:44;13.20;;;7.72;;
79624;SDS011;69101;45.534;10.218;2023-05-07T01:30:10;12.80;;;8.45;;
79624;SDS011;69101;45.534;10.218;2023-05-07T01:32:37;12.90;;;7.88;;
79624;SDS011;69101;45.534;10.218;2023-05-07T01:35:07;13.90;;;8.10;;
79624;SDS011;69101;45.534;10.218;2023-05-07T01:37:36;13.52;;;8.43;;
79624;SDS011;69101;45.534;10.218;2023-05-07T01:40:03;13.05;;;7.95;;
79624;SDS011;69101;45.534;10.218;2023-05-07T01:42:29;13.02;;;8.20;;
79624;SDS011;69101;45.534;10.218;2023-05-07T01:44:55;12.75;;;8.13;;
79624;SDS011;69101;45.534;10.218;2023-05-07T01:47:21;12.82;;;7.72;;
79624;SDS011;69101;45.534;10.218;2023-05-07T01:49:46;12.60;;;7.30;;
79624;SDS011;69101;45.534;10.218;2023-05-07T01:52:12;12.13;;;7.53;;
79624;SDS011;69101;45.534;10.218;2023-05-07T01:54:37;12.32;;;7.47;;
79624;SDS011;69101;45.534;10.218;2023-05-07T01:57:03;12.73;;;8.02;;
79624;SDS011;69101;45.534;10.218;2023-05-07T01:59:28;12.30;;;7.38;;
79624;SDS011;69101;45.534;10.218;2023-05-07T02:01:53;13.05;;;7.78;;
79624;SDS011;69101;45.534;10.218;2023-05-07T02:04:19;13.50;;;8.00;;
79624;SDS011;69101;45.534;10.218;2023-05-07T02:06:44;14.38;;;8.40;;
79624;SDS011;69101;45.534;10.218;2023-05-07T02:09:10;13.18;;;8.32;;
79624;SDS011;69101;45.534;10.218;2023-05-07T02:11:36;14.60;;;8.65;;
79624;SDS011;69101;45.534;10.218;2023-05-07T02:14:01;12.73;;;7.70;;
79624;SDS011;69101;45.534;10.218;2023-05-07T02:16:26;14.05;;;8.10;;
79624;SDS011;69101;45.534;10.218;2023-05-07T02:18:52;12.77;;;7.95;;
79624;SDS011;69101;45.534;10.218;2023-05-07T02:21:17;12.68;;;7.72;;
79624;SDS011;69101;45.534;10.218;2023-05-07T02:23:42;13.77;;;8.45;;
79624;SDS011;69101;45.534;10.218;2023-05-07T02:26:08;14.57;;;9.63;;
79624;SDS011;69101;45.534;10.218;2023-05-07T02:28:33;14.00;;;9.07;;
79624;SDS011;69101;45.534;10.218;2023-05-07T02:31:02;15.27;;;9.27;;
79624;SDS011;69101;45.534;10.218;2023-05-07T02:33:27;13.57;;;8.65;;
79624;SDS011;69101;45.534;10.218;2023-05-07T02:35:53;14.40;;;9.05;;
79624;SDS011;69101;45.534;10.218;2023-05-07T02:38:18;14.05;;;8.85;;
79624;SDS011;69101;45.534;10.218;2023-05-07T02:40:44;15.40;;;9.05;;
79624;SDS011;69101;45.534;10.218;2023-05-07T02:43:09;15.63;;;9.65;;
79624;SDS011;69101;45.534;10.218;2023-05-07T02:45:35;14.57;;;9.07;;
79624;SDS011;69101;45.534;10.218;2023-05-07T02:48:02;16.08;;;9.45;;
79624;SDS011;69101;45.534;10.218;2023-05-07T02:50:28;13.10;;;8.15;;
79624;SDS011;69101;45.534;10.218;2023-05-07T02:52:53;14.02;;;9.18;;
79624;SDS011;69101;45.534;10.218;2023-05-07T02:55:18;14.10;;;8.70;;
79624;SDS011;69101;45.534;10.218;2023-05-07T02:57:44;14.15;;;8.80;;
79624;SDS011;69101;45.534;10.218;2023-05-07T03:00:13;14.65;;;8.90;;
79624;SDS011;69101;45.534;10.218;2023-05-07T03:02:39;15.05;;;9.80;;
79624;SDS011;69101;45.534;10.218;2023-05-07T03:05:05;15.65;;;10.18;;
79624;SDS011;69101;45.534;10.218;2023-05-07T03:07:31;15.55;;;9.43;;
79624;SDS011;69101;45.534;10.218;2023-05-07T03:09:56;16.67;;;10.02;;
79624;SDS011;69101;45.534;10.218;2023-05-07T03:12:21;15.35;;;10.43;;
79624;SDS011;69101;45.534;10.218;2023-05-07T03:14:47;15.32;;;8.88;;
79624;SDS011;69101;45.534;10.218;2023-05-07T03:17:12;14.07;;;8.50;;
79624;SDS011;69101;45.534;10.218;2023-05-07T03:19:37;14.07;;;8.57;;
79624;SDS011;69101;45.534;10.218;2023-05-07T03:22:03;13.18;;;7.72;;
79624;SDS011;69101;45.534;10.218;2023-05-07T03:24:28;13.30;;;7.78;;
79624;SDS011;69101;45.534;10.218;2023-05-07T03:26:53;12.80;;;7.25;;
79624;SDS011;69101;45.534;10.218;2023-05-07T03:29:19;12.48;;;6.65;;
79624;SDS011;69101;45.534;10.218;2023-05-07T03:31:44;12.40;;;7.00;;
79624;SDS011;69101;45.534;10.218;2023-05-07T03:34:10;12.13;;;7.20;;
79624;SDS011;69101;45.534;10.218;2023-05-07T03:36:35;11.43;;;6.57;;
79624;SDS011;69101;45.534;10.218;2023-05-07T03:39:00;11.77;;;7.10;;
79624;SDS011;69101;45.534;10.218;2023-05-07T03:41:26;13.48;;;7.28;;
79624;SDS011;69101;45.534;10.218;2023-05-07T03:43:51;11.35;;;6.35;;
79624;SDS011;69101;45.534;10.218;2023-05-07T03:46:17;11.38;;;5.93;;
79624;SDS011;69101;45.534;10.218;2023-05-07T03:48:42;11.75;;;6.38;;
79624;SDS011;69101;45.534;10.218;2023-05-07T03:51:07;11.68;;;6.32;;
79624;SDS011;69101;45.534;10.218;2023-05-07T03:53:33;11.48;;;6.15;;
79624;SDS011;69101;45.534;10.218;2023-05-07T03:55:58;11.32;;;5.43;;
79624;SDS011;69101;45.534;10.218;2023-05-07T03:58:23;11.77;;;5.68;;
79624;SDS011;69101;45.534;10.218;2023-05-07T04:00:49;11.20;;;5.35;;
79624;SDS011;69101;45.534;10.218;2023-05-07T04:03:14;10.70;;;5.25;;
79624;SDS011;69101;45.534;10.218;2023-05-07T04:05:40;10.48;;;5.40;;
79624;SDS011;69101;45.534;10.218;2023-05-07T04:08:05;11.15;;;5.57;;
79624;SDS011;69101;45.534;10.218;2023-05-07T04:10:31;11.88;;;5.70;;
79624;SDS011;69101;45.534;10.218;2023-05-07T04:12:56;11.20;;;5.65;;
79624;SDS011;69101;45.534;10.218;2023-05-07T04:15:23;11.38;;;5.55;;
79624;SDS011;69101;45.534;10.218;2023-05-07T04:17:48;11.75;;;5.80;;
79624;SDS011;69101;45.534;10.218;2023-05-07T04:20:14;10.82;;;4.97;;
79624;SDS011;69101;45.534;10.218;2023-05-07T04:22:41;11.13;;;4.75;;
79624;SDS011;69101;45.534;10.218;2023-05-07T04:25:07;10.10;;;4.88;;
79624;SDS011;69101;45.534;10.218;2023-05-07T04:27:34;10.45;;;4.85;;
79624;SDS011;69101;45.534;10.218;2023-05-07T04:30:00;10.95;;;4.63;;
79624;SDS011;69101;45.534;10.218;2023-05-07T04:32:26;10.38;;;4.75;;
79624;SDS011;69101;45.534;10.218;2023-05-07T04:34:54;9.98;;;4.50;;
79624;SDS011;69101;45.534;10.218;2023-05-07T04:37:19;10.98;;;4.85;;
79624;SDS011;69101;45.534;10.218;2023-05-07T04:39:45;10.70;;;4.97;;
79624;SDS011;69101;45.534;10.218;2023-05-07T04:42:14;10.32;;;4.65;;
79624;SDS011;69101;45.534;10.218;2023-05-07T04:47:05;10.53;;;4.30;;
79624;SDS011;69101;45.534;10.218;2023-05-07T04:49:31;10.10;;;4.70;;
79624;SDS011;69101;45.534;10.218;2023-05-07T04:51:56;10.93;;;5.40;;
79624;SDS011;69101;45.534;10.218;2023-05-07T04:54:22;10.80;;;4.97;;
79624;SDS011;69101;45.534;10.218;2023-05-07T04:56:47;10.55;;;5.00;;
79624;SDS011;69101;45.534;10.218;2023-05-07T04:59:12;11.02;;;4.78;;
79624;SDS011;69101;45.534;10.218;2023-05-07T05:01:38;10.75;;;4.53;;
79624;SDS011;69101;45.534;10.218;2023-05-07T05:04:03;9.90;;;4.80;;
79624;SDS011;69101;45.534;10.218;2023-05-07T05:06:28;9.90;;;4.85;;
79624;SDS011;69101;45.534;10.218;2023-05-07T05:08:54;10.85;;;5.20;;
79624;SDS011;69101;45.534;10.218;2023-05-07T05:11:20;11.48;;;5.50;;
79624;SDS011;69101;45.534;10.218;2023-05-07T05:13:45;10.85;;;4.80;;
79624;SDS011;69101;45.534;10.218;2023-05-07T05:16:13;9.88;;;4.57;;
79624;SDS011;69101;45.534;10.218;2023-05-07T05:18:39;9.77;;;4.82;;
79624;SDS011;69101;45.534;10.218;2023-05-07T05:21:05;11.63;;;4.50;;
79624;SDS011;69101;45.534;10.218;2023-05-07T05:23:30;10.18;;;4.78;;
79624;SDS011;69101;45.534;10.218;2023-05-07T05:25:56;10.27;;;4.57;;
79624;SDS011;69101;45.534;10.218;2023-05-07T05:28:22;10.40;;;4.28;;
79624;SDS011;69101;45.534;10.218;2023-05-07T05:30:48;9.93;;;4.40;;
79624;SDS011;69101;45.534;10.218;2023-05-07T05:33:14;10.15;;;4.53;;
79624;SDS011;69101;45.534;10.218;2023-05-07T05:35:39;9.90;;;3.95;;
79624;SDS011;69101;45.534;10.218;2023-05-07T05:38:05;10.13;;;4.35;;
79624;SDS011;69101;45.534;10.218;2023-05-07T05:40:30;10.30;;;4.10;;
79624;SDS011;69101;45.534;10.218;2023-05-07T05:42:55;9.85;;;4.10;;
79624;SDS011;69101;45.534;10.218;2023-05-07T05:45:21;12.50;;;4.57;;
79624;SDS011;69101;45.534;10.218;2023-05-07T05:47:46;9.13;;;3.67;;
79624;SDS011;69101;45.534;10.218;2023-05-07T05:50:12;10.45;;;4.10;;
79624;SDS011;69101;45.534;10.218;2023-05-07T05:52:37;9.27;;;4.00;;
79624;SDS011;69101;45.534;10.218;2023-05-07T05:55:03;9.82;;;4.53;;
79624;SDS011;69101;45.534;10.218;2023-05-07T05:57:28;9.82;;;4.15;;
79624;SDS011;69101;45.534;10.218;2023-05-07T05:59:54;9.85;;;4.22;;
79624;SDS011;69101;45.534;10.218;2023-05-07T06:02:19;11.20;;;4.40;;
79624;SDS011;69101;45.534;10.218;2023-05-07T06:04:45;9.95;;;4.00;;
79624;SDS011;69101;45.534;10.218;2023-05-07T06:07:10;9.80;;;3.63;;
79624;SDS011;69101;45.534;10.218;2023-05-07T06:09:36;9.73;;;3.70;;
79624;SDS011;69101;45.534;10.218;2023-05-07T06:12:02;10.85;;;4.28;;
79624;SDS011;69101;45.534;10.218;2023-05-07T06:14:27;9.80;;;4.20;;
79624;SDS011;69101;45.534;10.218;2023-05-07T06:16:52;10.00;;;4.43;;
79624;SDS011;69101;45.534;10.218;2023-05-07T06:19:18;10.10;;;4.38;;
79624;SDS011;69101;45.534;10.218;2023-05-07T06:21:47;12.40;;;4.60;;
79624;SDS011;69101;45.534;10.218;2023-05-07T06:24:13;9.85;;;4.30;;
79624;SDS011;69101;45.534;10.218;2023-05-07T06:26:38;11.18;;;4.80;;
79624;SDS011;69101;45.534;10.218;2023-05-07T06:29:04;12.55;;;5.82;;
79624;SDS011;69101;45.534;10.218;2023-05-07T06:31:31;12.43;;;6.40;;
79624;SDS011;69101;45.534;10.218;2023-05-07T06:33:57;11.80;;;6.10;;
79624;SDS011;69101;45.534;10.218;2023-05-07T06:36:22;12.13;;;6.40;;
79624;SDS011;69101;45.534;10.218;2023-05-07T06:38:48;11.10;;;5.80;;
79624;SDS011;69101;45.534;10.218;2023-05-07T06:41:13;12.65;;;6.53;;
79624;SDS011;69101;45.534;10.218;2023-05-07T06:43:38;12.68;;;7.50;;
79624;SDS011;69101;45.534;10.218;2023-05-07T06:46:04;13.00;;;6.80;;
79624;SDS011;69101;45.534;10.218;2023-05-07T06:48:30;12.75;;;6.70;;
79624;SDS011;69101;45.534;10.218;2023-05-07T06:50:55;12.05;;;6.30;;
79624;SDS011;69101;45.534;10.218;2023-05-07T06:53:22;11.85;;;6.72;;
79624;SDS011;69101;45.534;10.218;2023-05-07T06:55:48;12.05;;;6.32;;
79624;SDS011;69101;45.534;10.218;2023-05-07T06:58:13;11.73;;;6.22;;
79624;SDS011;69101;45.534;10.218;2023-05-07T07:00:39;11.60;;;5.38;;
79624;SDS011;69101;45.534;10.218;2023-05-07T07:03:05;10.95;;;4.65;;
79624;SDS011;69101;45.534;10.218;2023-05-07T07:05:31;11.90;;;5.68;;
79624;SDS011;69101;45.534;10.218;2023-05-07T07:07:56;12.77;;;6.22;;
79624;SDS011;69101;45.534;10.218;2023-05-07T07:10:22;11.38;;;5.00;;
79624;SDS011;69101;45.534;10.218;2023-05-07T07:12:48;10.35;;;4.93;;
79624;SDS011;69101;45.534;10.218;2023-05-07T07:15:14;9.77;;;4.80;;
79624;SDS011;69101;45.534;10.218;2023-05-07T07:17:39;10.75;;;4.78;;
79624;SDS011;69101;45.534;10.218;2023-05-07T07:20:05;10.23;;;4.68;;
79624;SDS011;69101;45.534;10.218;2023-05-07T07:22:31;11.50;;;5.72;;
79624;SDS011;69101;45.534;10.218;2023-05-07T07:24:56;10.25;;;4.65;;
79624;SDS011;69101;45.534;10.218;2023-05-07T07:27:22;10.23;;;5.10;;
79624;SDS011;69101;45.534;10.218;2023-05-07T07:29:47;11.50;;;4.72;;
79624;SDS011;69101;45.534;10.218;2023-05-07T07:32:12;10.73;;;4.88;;
79624;SDS011;69101;45.534;10.218;2023-05-07T07:34:38;11.00;;;5.40;;
79624;SDS011;69101;45.534;10.218;2023-05-07T07:37:03;10.60;;;5.47;;
79624;SDS011;69101;45.534;10.218;2023-05-07T07:39:31;11.00;;;5.22;;
79624;SDS011;69101;45.534;10.218;2023-05-07T07:41:57;11.55;;;5.20;;
79624;SDS011;69101;45.534;10.218;2023-05-07T07:44:22;11.07;;;5.22;;
79624;SDS011;69101;45.534;10.218;2023-05-07T07:46:48;10.25;;;4.95;;
79624;SDS011;69101;45.534;10.218;2023-05-07T07:49:14;10.10;;;4.55;;
79624;SDS011;69101;45.534;10.218;2023-05-07T07:51:39;10.50;;;4.78;;
79624;SDS011;69101;45.534;10.218;2023-05-07T07:54:05;10.95;;;5.03;;
79624;SDS011;69101;45.534;10.218;2023-05-07T07:56:31;10.02;;;4.60;;
79624;SDS011;69101;45.534;10.218;2023-05-07T07:58:58;10.90;;;5.00;;
79624;SDS011;69101;45.534;10.218;2023-05-07T08:01:23;11.60;;;5.43;;
79624;SDS011;69101;45.534;10.218;2023-05-07T08:03:49;11.15;;;4.90;;
79624;SDS011;69101;45.534;10.218;2023-05-07T08:06:14;11.25;;;5.30;;
79624;SDS011;69101;45.534;10.218;2023-05-07T08:08:40;12.40;;;5.78;;
79624;SDS011;69101;45.534;10.218;2023-05-07T08:11:06;13.10;;;5.45;;
79624;SDS011;69101;45.534;10.218;2023-05-07T08:13:31;12.23;;;5.13;;
79624;SDS011;69101;45.534;10.218;2023-05-07T08:15:56;10.77;;;4.82;;
79624;SDS011;69101;45.534;10.218;2023-05-07T08:18:22;10.35;;;5.00;;
79624;SDS011;69101;45.534;10.218;2023-05-07T08:20:49;11.25;;;5.60;;
79624;SDS011;69101;45.534;10.218;2023-05-07T08:23:15;10.25;;;5.10;;
79624;SDS011;69101;45.534;10.218;2023-05-07T08:25:40;10.82;;;5.05;;
79624;SDS011;69101;45.534;10.218;2023-05-07T08:28:07;12.35;;;5.35;;
79624;SDS011;69101;45.534;10.218;2023-05-07T08:30:33;11.00;;;5.18;;
79624;SDS011;69101;45.534;10.218;2023-05-07T08:32:58;10.90;;;5.45;;
79624;SDS011;69101;45.534;10.218;2023-05-07T08:35:24;10.73;;;5.25;;
79624;SDS011;69101;45.534;10.218;2023-05-07T08:37:50;11.27;;;5.18;;
79624;SDS011;69101;45.534;10.218;2023-05-07T08:40:16;10.75;;;5.38;;
79624;SDS011;69101;45.534;10.218;2023-05-07T08:42:41;10.80;;;4.82;;
79624;SDS011;69101;45.534;10.218;2023-05-07T08:45:09;10.48;;;4.68;;
79624;SDS011;69101;45.534;10.218;2023-05-07T08:47:40;11.63;;;5.20;;
79624;SDS011;69101;45.534;10.218;2023-05-07T08:50:09;11.23;;;5.43;;
79624;SDS011;69101;45.534;10.218;2023-05-07T08:52:35;10.90;;;5.13;;
79624;SDS011;69101;45.534;10.218;2023-05-07T08:55:02;11.18;;;5.10;;
79624;SDS011;69101;45.534;10.218;2023-05-07T08:57:27;10.10;;;5.10;;
79624;SDS011;69101;45.534;10.218;2023-05-07T08:59:53;11.43;;;5.07;;
79624;SDS011;69101;45.534;10.218;2023-05-07T09:02:18;10.07;;;4.72;;
79624;SDS011;69101;45.534;10.218;2023-05-07T09:04:44;10.55;;;4.93;;
79624;SDS011;69101;45.534;10.218;2023-05-07T09:07:09;11.50;;;5.55;;
79624;SDS011;69101;45.534;10.218;2023-05-07T09:09:35;11.05;;;4.90;;
79624;SDS011;69101;45.534;10.218;2023-05-07T09:12:00;11.07;;;5.25;;
79624;SDS011;69101;45.534;10.218;2023-05-07T09:14:27;11.05;;;5.60;;
79624;SDS011;69101;45.534;10.218;2023-05-07T09:16:52;10.50;;;4.80;;
79624;SDS011;69101;45.534;10.218;2023-05-07T09:19:22;10.60;;;5.00;;
79624;SDS011;69101;45.534;10.218;2023-05-07T09:21:48;10.45;;;5.28;;
79624;SDS011;69101;45.534;10.218;2023-05-07T09:24:15;10.65;;;5.25;;
79624;SDS011;69101;45.534;10.218;2023-05-07T09:26:41;10.75;;;5.35;;
79624;SDS011;69101;45.534;10.218;2023-05-07T09:29:07;10.57;;;5.13;;
79624;SDS011;69101;45.534;10.218;2023-05-07T09:31:35;10.20;;;4.90;;
79624;SDS011;69101;45.534;10.218;2023-05-07T09:34:04;10.70;;;4.80;;
79624;SDS011;69101;45.534;10.218;2023-05-07T09:36:31;10.63;;;5.03;;
79624;SDS011;69101;45.534;10.218;2023-05-07T09:38:58;10.52;;;4.97;;
79624;SDS011;69101;45.534;10.218;2023-05-07T09:41:25;11.07;;;5.78;;
79624;SDS011;69101;45.534;10.218;2023-05-07T09:43:54;11.30;;;4.88;;
79624;SDS011;69101;45.534;10.218;2023-05-07T09:46:20;11.63;;;4.97;;
79624;SDS011;69101;45.534;10.218;2023-05-07T09:48:52;11.65;;;5.28;;
79624;SDS011;69101;45.534;10.218;2023-05-07T09:51:22;10.55;;;5.20;;
79624;SDS011;69101;45.534;10.218;2023-05-07T09:53:53;10.88;;;5.32;;
79624;SDS011;69101;45.534;10.218;2023-05-07T09:56:18;10.82;;;4.97;;
79624;SDS011;69101;45.534;10.218;2023-05-07T09:58:45;10.35;;;5.22;;
79624;SDS011;69101;45.534;10.218;2023-05-07T10:01:12;11.15;;;4.72;;
79624;SDS011;69101;45.534;10.218;2023-05-07T10:03:39;10.43;;;5.18;;
79624;SDS011;69101;45.534;10.218;2023-05-07T10:06:06;11.15;;;5.13;;
79624;SDS011;69101;45.534;10.218;2023-05-07T10:08:33;10.57;;;4.90;;
79624;SDS011;69101;45.534;10.218;2023-05-07T10:11:00;10.55;;;4.82;;
79624;SDS011;69101;45.534;10.218;2023-05-07T10:13:26;10.75;;;4.97;;
79624;SDS011;69101;45.534;10.218;2023-05-07T10:15:52;10.70;;;4.88;;
79624;SDS011;69101;45.534;10.218;2023-05-07T10:18:18;10.48;;;5.07;;
79624;SDS011;69101;45.534;10.218;2023-05-07T10:20:47;10.15;;;5.10;;
79624;SDS011;69101;45.534;10.218;2023-05-07T10:23:14;10.25;;;5.00;;
79624;SDS011;69101;45.534;10.218;2023-05-07T10:25:47;10.32;;;5.25;;
79624;SDS011;69101;45.534;10.218;2023-05-07T10:28:13;10.20;;;4.72;;
79624;SDS011;69101;45.534;10.218;2023-05-07T10:31:01;11.13;;;4.90;;
79624;SDS011;69101;45.534;10.218;2023-05-07T10:33:49;11.00;;;4.97;;
79624;SDS011;69101;45.534;10.218;2023-05-07T10:36:16;10.35;;;4.72;;
79624;SDS011;69101;45.534;10.218;2023-05-07T10:38:43;10.63;;;4.80;;
79624;SDS011;69101;45.534;10.218;2023-05-07T10:41:08;10.70;;;4.72;;
79624;SDS011;69101;45.534;10.218;2023-05-07T10:43:41;9.93;;;4.88;;
79624;SDS011;69101;45.534;10.218;2023-05-07T10:46:09;10.57;;;4.82;;
79624;SDS011;69101;45.534;10.218;2023-05-07T10:48:49;10.75;;;5.10;;
79624;SDS011;69101;45.534;10.218;2023-05-07T10:51:28;10.85;;;4.90;;
79624;SDS011;69101;45.534;10.218;2023-05-07T10:56:36;10.20;;;4.93;;
79624;SDS011;69101;45.534;10.218;2023-05-07T11:01:58;10.57;;;4.93;;
79624;SDS011;69101;45.534;10.218;2023-05-07T11:04:27;11.30;;;4.80;;
79624;SDS011;69101;45.534;10.218;2023-05-07T11:15:04;12.98;;;7.20;;
79624;SDS011;69101;45.534;10.218;2023-05-07T11:17:52;13.35;;;6.80;;
79624;SDS011;69101;45.534;10.218;2023-05-07T11:22:45;14.63;;;7.50;;
79624;SDS011;69101;45.534;10.218;2023-05-07T11:25:11;14.82;;;7.43;;
79624;SDS011;69101;45.534;10.218;2023-05-07T11:27:44;14.10;;;7.45;;
79624;SDS011;69101;45.534;10.218;2023-05-07T11:30:10;14.63;;;8.07;;
79624;SDS011;69101;45.534;10.218;2023-05-07T11:32:41;14.52;;;7.85;;
79624;SDS011;69101;45.534;10.218;2023-05-07T11:35:07;13.52;;;7.55;;
79624;SDS011;69101;45.534;10.218;2023-05-07T11:37:33;13.40;;;7.47;;
79624;SDS011;69101;45.534;10.218;2023-05-07T11:40:17;13.20;;;7.95;;
79624;SDS011;69101;45.534;10.218;2023-05-07T11:42:42;14.52;;;7.55;;
79624;SDS011;69101;45.534;10.218;2023-05-07T11:45:08;14.05;;;7.20;;
79624;SDS011;69101;45.534;10.218;2023-05-07T11:47:34;14.73;;;7.13;;
79624;SDS011;69101;45.534;10.218;2023-05-07T11:50:03;14.25;;;7.20;;
79624;SDS011;69101;45.534;10.218;2023-05-07T11:52:30;13.38;;;6.97;;
79624;SDS011;69101;45.534;10.218;2023-05-07T11:54:57;13.05;;;6.97;;
79624;SDS011;69101;45.534;10.218;2023-05-07T11:57:24;12.32;;;6.57;;
79624;SDS011;69101;45.534;10.218;2023-05-07T11:59:53;13.75;;;7.07;;
79624;SDS011;69101;45.534;10.218;2023-05-07T12:02:19;12.75;;;6.80;;
79624;SDS011;69101;45.534;10.218;2023-05-07T12:04:45;13.88;;;6.43;;
79624;SDS011;69101;45.534;10.218;2023-05-07T12:07:16;13.50;;;6.32;;
79624;SDS011;69101;45.534;10.218;2023-05-07T12:09:43;12.60;;;7.05;;
79624;SDS011;69101;45.534;10.218;2023-05-07T12:12:09;13.02;;;6.60;;
79624;SDS011;69101;45.534;10.218;2023-05-07T12:14:41;13.20;;;6.63;;
79624;SDS011;69101;45.534;10.218;2023-05-07T12:17:08;12.52;;;6.45;;
79624;SDS011;69101;45.534;10.218;2023-05-07T12:19:34;11.93;;;6.20;;
79624;SDS011;69101;45.534;10.218;2023-05-07T12:22:01;11.35;;;6.00;;
79624;SDS011;69101;45.534;10.218;2023-05-07T12:24:28;12.73;;;6.07;;
79624;SDS011;69101;45.534;10.218;2023-05-07T12:26:53;12.00;;;6.10;;
79624;SDS011;69101;45.534;10.218;2023-05-07T12:29:22;12.18;;;5.85;;
79624;SDS011;69101;45.534;10.218;2023-05-07T12:31:48;12.70;;;6.13;;
79624;SDS011;69101;45.534;10.218;2023-05-07T12:34:14;11.95;;;6.00;;
79624;SDS011;69101;45.534;10.218;2023-05-07T12:36:40;11.02;;;5.45;;
79624;SDS011;69101;45.534;10.218;2023-05-07T12:39:08;12.57;;;6.03;;
79624;SDS011;69101;45.534;10.218;2023-05-07T12:44:23;11.20;;;5.43;;
79624;SDS011;69101;45.534;10.218;2023-05-07T12:46:49;12.40;;;5.72;;
79624;SDS011;69101;45.534;10.218;2023-05-07T12:49:15;11.60;;;5.25;;
79624;SDS011;69101;45.534;10.218;2023-05-07T12:51:40;12.23;;;5.57;;
79624;SDS011;69101;45.534;10.218;2023-05-07T12:54:06;11.20;;;5.47;;
79624;SDS011;69101;45.534;10.218;2023-05-07T12:56:31;11.65;;;5.57;;
79624;SDS011;69101;45.534;10.218;2023-05-07T12:58:57;11.40;;;5.25;;
79624;SDS011;69101;45.534;10.218;2023-05-07T13:01:28;10.32;;;5.03;;
79624;SDS011;69101;45.534;10.218;2023-05-07T13:03:54;14.02;;;5.72;;
79624;SDS011;69101;45.534;10.218;2023-05-07T13:06:20;11.00;;;5.47;;
79624;SDS011;69101;45.534;10.218;2023-05-07T13:08:45;11.60;;;5.20;;
79624;SDS011;69101;45.534;10.218;2023-05-07T13:11:11;11.30;;;5.53;;
79624;SDS011;69101;45.534;10.218;2023-05-07T13:13:37;10.90;;;5.07;;
79624;SDS011;69101;45.534;10.218;2023-05-07T13:16:05;10.82;;;5.32;;
79624;SDS011;69101;45.534;10.218;2023-05-07T13:18:33;11.48;;;5.32;;
79624;SDS011;69101;45.534;10.218;2023-05-07T13:20:59;11.18;;;5.07;;
79624;SDS011;69101;45.534;10.218;2023-05-07T13:23:26;11.02;;;5.55;;
79624;SDS011;69101;45.534;10.218;2023-05-07T13:25:52;11.65;;;5.40;;
79624;SDS011;69101;45.534;10.218;2023-05-07T13:28:19;11.13;;;4.85;;
79624;SDS011;69101;45.534;10.218;2023-05-07T13:30:45;10.95;;;4.65;;
79624;SDS011;69101;45.534;10.218;2023-05-07T13:33:11;11.00;;;4.72;;
79624;SDS011;69101;45.534;10.218;2023-05-07T13:35:36;11.48;;;5.07;;
79624;SDS011;69101;45.534;10.218;2023-05-07T13:38:02;10.27;;;4.72;;
79624;SDS011;69101;45.534;10.218;2023-05-07T13:40:28;10.98;;;5.38;;
79624;SDS011;69101;45.534;10.218;2023-05-07T13:42:53;10.95;;;5.03;;
79624;SDS011;69101;45.534;10.218;2023-05-07T13:45:19;11.13;;;4.88;;
79624;SDS011;69101;45.534;10.218;2023-05-07T13:47:45;9.85;;;4.32;;
79624;SDS011;69101;45.534;10.218;2023-05-07T13:50:11;11.48;;;5.28;;
79624;SDS011;69101;45.534;10.218;2023-05-07T13:52:39;9.75;;;4.72;;
79624;SDS011;69101;45.534;10.218;2023-05-07T13:55:06;9.95;;;4.95;;
79624;SDS011;69101;45.534;10.218;2023-05-07T13:57:32;10.48;;;4.85;;
79624;SDS011;69101;45.534;10.218;2023-05-07T13:59:57;10.55;;;5.10;;
79624;SDS011;69101;45.534;10.218;2023-05-07T14:02:23;10.90;;;4.30;;
79624;SDS011;69101;45.534;10.218;2023-05-07T14:04:48;11.05;;;4.78;;
79624;SDS011;69101;45.534;10.218;2023-05-07T14:07:13;10.32;;;4.60;;
79624;SDS011;69101;45.534;10.218;2023-05-07T14:09:39;10.55;;;4.55;;
79624;SDS011;69101;45.534;10.218;2023-05-07T14:12:05;10.10;;;4.65;;
79624;SDS011;69101;45.534;10.218;2023-05-07T14:14:31;10.15;;;4.53;;
79624;SDS011;69101;45.534;10.218;2023-05-07T14:16:56;10.13;;;4.70;;
79624;SDS011;69101;45.534;10.218;2023-05-07T14:19:22;10.00;;;4.55;;
79624;SDS011;69101;45.534;10.218;2023-05-07T14:21:47;10.40;;;4.63;;
79624;SDS011;69101;45.534;10.218;2023-05-07T14:24:13;10.30;;;4.50;;
79624;SDS011;69101;45.534;10.218;2023-05-07T14:26:38;9.90;;;4.28;;
79624;SDS011;69101;45.534;10.218;2023-05-07T14:29:04;10.63;;;4.70;;
79624;SDS011;69101;45.534;10.218;2023-05-07T14:31:29;9.55;;;4.30;;
79624;SDS011;69101;45.534;10.218;2023-05-07T14:33:55;10.35;;;4.43;;
79624;SDS011;69101;45.534;10.218;2023-05-07T14:36:22;10.63;;;4.78;;
79624;SDS011;69101;45.534;10.218;2023-05-07T14:38:51;9.85;;;4.15;;